createdAt,value
2023-03-15T00:00:29.039Z,1.10
2023-03-15T00:02:59.102Z,1.10
2023-03-15T00:05:31.018Z,1.10
2023-03-15T00:08:02.323Z,1.10
2023-03-15T00:10:34.173Z,1.10
2023-03-15T00:13:04.337Z,1.10
2023-03-15T00:15:34.571Z,1.10
2023-03-15T00:18:05.327Z,1.20
2023-03-15T00:20:41.187Z,1.20
2023-03-15T00:23:11.598Z,1.20
2023-03-15T00:25:42.062Z,1.20
2023-03-15T00:28:12.121Z,1.20
2023-03-15T00:30:45.596Z,1.20
2023-03-15T00:33:16.878Z,1.20
2023-03-15T00:35:49.844Z,1.20
2023-03-15T00:38:21.105Z,1.20
2023-03-15T00:40:51.765Z,1.20
2023-03-15T00:43:21.870Z,1.20
2023-03-15T00:45:52.300Z,1.20
2023-03-15T00:48:23.099Z,1.10
2023-03-15T00:50:54.921Z,1.20
2023-03-15T00:53:27.310Z,1.10
2023-03-15T00:55:57.790Z,1.10
2023-03-15T00:58:28.686Z,1.10
2023-03-15T01:00:58.935Z,1.10
2023-03-15T01:03:29.910Z,1.20
2023-03-15T01:06:03.330Z,1.10
2023-03-15T01:08:35.633Z,1.10
2023-03-15T01:11:07.099Z,1.10
2023-03-15T01:13:38.097Z,1.10
2023-03-15T01:16:10.413Z,1.10
2023-03-15T01:18:43.030Z,1.10
2023-03-15T01:21:17.761Z,1.10
2023-03-15T01:23:48.275Z,1.10
2023-03-15T01:26:19.795Z,1.10
2023-03-15T01:28:51.510Z,1.10
2023-03-15T01:31:23.184Z,1.10
2023-03-15T01:33:53.718Z,1.10
2023-03-15T01:36:25.756Z,1.10
2023-03-15T01:38:56.263Z,1.10
2023-03-15T01:41:27.975Z,1.00
2023-03-15T01:43:58.524Z,1.00
2023-03-15T01:46:30.829Z,1.00
2023-03-15T01:49:08.299Z,1.00
2023-03-15T01:51:45.031Z,1.00
2023-03-15T01:54:20.576Z,1.00
2023-03-15T01:56:54.686Z,1.00
2023-03-15T01:59:29.324Z,1.00
2023-03-15T02:02:01.278Z,1.00
2023-03-15T02:04:36.553Z,0.90
2023-03-15T02:07:11.442Z,1.00
2023-03-15T02:09:53.083Z,0.90
2023-03-15T02:12:23.450Z,1.00
2023-03-15T02:14:56.845Z,0.90
2023-03-15T02:17:35.985Z,0.90
2023-03-15T02:20:15.215Z,0.90
2023-03-15T02:22:53.179Z,0.90
2023-03-15T02:25:35.628Z,0.80
2023-03-15T02:28:10.477Z,0.80
2023-03-15T02:30:40.996Z,0.80
2023-03-15T02:33:16.544Z,0.80
2023-03-15T02:35:51.304Z,0.80
2023-03-15T02:38:23.712Z,0.80
2023-03-15T02:40:56.566Z,0.80
2023-03-15T02:43:34.144Z,0.80
2023-03-15T02:46:05.751Z,0.80
2023-03-15T02:48:38.533Z,0.80
2023-03-15T02:51:08.984Z,0.80
2023-03-15T02:53:39.097Z,0.80
2023-03-15T02:56:10.094Z,0.80
2023-03-15T02:58:42.146Z,0.80
2023-03-15T03:01:13.838Z,0.80
2023-03-15T03:03:44.267Z,0.70
2023-03-15T03:06:15.504Z,0.70
2023-03-15T03:08:47.681Z,0.70
2023-03-15T03:11:18.922Z,0.70
2023-03-15T03:13:50.704Z,0.70
2023-03-15T03:16:20.804Z,0.70
2023-03-15T03:18:51.380Z,0.70
2023-03-15T03:21:21.875Z,0.70
2023-03-15T03:23:52.052Z,0.60
2023-03-15T03:26:22.414Z,0.60
2023-03-15T03:28:54.980Z,0.60
2023-03-15T03:31:26.685Z,0.60
2023-03-15T03:33:58.718Z,0.60
2023-03-15T03:36:29.053Z,0.60
2023-03-15T03:39:00.298Z,0.60
2023-03-15T03:41:30.442Z,0.60
2023-03-15T03:44:02.171Z,0.60
2023-03-15T03:46:32.624Z,0.60
2023-03-15T03:49:02.887Z,0.60
2023-03-15T03:51:34.808Z,0.50
2023-03-15T03:54:05.147Z,0.60
2023-03-15T03:56:35.431Z,0.60
2023-03-15T03:59:07.154Z,0.50
2023-03-15T04:01:37.246Z,0.50
2023-03-15T04:04:07.680Z,0.50
2023-03-15T04:06:38.596Z,0.50
2023-03-15T04:09:09.251Z,0.50
2023-03-15T04:11:39.259Z,0.50
2023-03-15T04:14:11.404Z,0.50
2023-03-15T04:16:42.064Z,0.40
2023-03-15T04:19:13.690Z,0.40
2023-03-15T04:21:47.926Z,0.40
2023-03-15T04:24:18.064Z,0.40
2023-03-15T04:26:48.185Z,0.40
2023-03-15T04:29:20.192Z,0.40
2023-03-15T04:31:50.225Z,0.40
2023-03-15T04:34:20.352Z,0.30
2023-03-15T04:36:50.404Z,0.30
2023-03-15T04:39:21.087Z,0.30
2023-03-15T04:41:51.686Z,0.30
2023-03-15T04:44:27.251Z,0.30
2023-03-15T04:46:58.757Z,0.30
2023-03-15T04:49:29.353Z,0.30
2023-03-15T04:51:59.843Z,0.30
2023-03-15T04:54:30.280Z,0.20
2023-03-15T04:57:00.393Z,0.20
2023-03-15T04:59:32.216Z,0.20
2023-03-15T05:02:03.859Z,0.20
2023-03-15T05:04:34.238Z,0.20
2023-03-15T05:07:04.732Z,0.20
2023-03-15T05:09:39.895Z,0.20
2023-03-15T05:12:10.783Z,0.20
2023-03-15T05:14:42.844Z,0.20
2023-03-15T05:17:13.441Z,0.10
2023-03-15T05:19:43.576Z,0.10
2023-03-15T05:22:15.234Z,0.10
2023-03-15T05:24:46.548Z,0.10
2023-03-15T05:27:16.872Z,0.10
2023-03-15T05:29:49.088Z,0.10
2023-03-15T05:32:19.157Z,0.10
2023-03-15T05:34:49.532Z,0.10
2023-03-15T05:37:19.844Z,0.10
2023-03-15T05:39:50.151Z,0.10
2023-03-15T05:42:26.088Z,0.00
2023-03-15T05:44:59.083Z,0.00
2023-03-15T05:47:29.244Z,0.00
2023-03-15T05:49:59.493Z,0.00
2023-03-15T05:52:29.572Z,0.00
2023-03-15T05:54:59.751Z,0.00
2023-03-15T05:57:29.808Z,0.00
2023-03-15T06:00:01.677Z,0.00
2023-03-15T06:02:31.768Z,-0.10
2023-03-15T06:05:01.914Z,-0.10
2023-03-15T06:07:32.139Z,-0.10
2023-03-15T06:10:02.234Z,-0.10
2023-03-15T06:12:32.314Z,-0.10
2023-03-15T06:15:04.351Z,-0.20
2023-03-15T06:17:35.275Z,-0.20
2023-03-15T06:20:05.739Z,-0.20
2023-03-15T06:22:36.091Z,-0.30
2023-03-15T06:25:07.002Z,-0.30
2023-03-15T06:27:37.283Z,-0.30
2023-03-15T06:30:10.536Z,-0.30
2023-03-15T06:32:40.842Z,-0.30
2023-03-15T06:35:11.791Z,-0.40
2023-03-15T06:37:42.488Z,-0.40
2023-03-15T06:40:13.727Z,-0.40
2023-03-15T06:42:44.060Z,-0.40
2023-03-15T06:45:17.063Z,-0.40
2023-03-15T06:47:47.896Z,-0.50
2023-03-15T06:50:18.225Z,-0.50
2023-03-15T06:52:48.262Z,-0.50
2023-03-15T06:55:19.224Z,-0.50
2023-03-15T06:57:49.405Z,-0.50
2023-03-15T07:00:22.031Z,-0.60
2023-03-15T07:02:52.405Z,-0.60
2023-03-15T07:05:22.539Z,-0.60
2023-03-15T07:07:52.711Z,-0.60
2023-03-15T07:10:23.538Z,-0.60
2023-03-15T07:12:53.812Z,-0.60
2023-03-15T07:15:25.653Z,-0.60
2023-03-15T07:17:55.788Z,-0.60
2023-03-15T07:20:25.931Z,-0.70
2023-03-15T07:22:56.496Z,-0.70
2023-03-15T07:25:26.936Z,-0.70
2023-03-15T07:27:57.152Z,-0.70
2023-03-15T07:30:28.865Z,-0.70
2023-03-15T07:32:59.184Z,-0.80
2023-03-15T07:35:29.427Z,-0.80
2023-03-15T07:37:59.834Z,-0.80
2023-03-15T07:40:30.197Z,-0.80
2023-03-15T07:43:00.955Z,-0.80
2023-03-15T07:45:32.642Z,-0.80
2023-03-15T07:48:03.070Z,-0.80
2023-03-15T07:50:33.293Z,-0.80
2023-03-15T07:53:04.118Z,-0.80
2023-03-15T07:55:35.259Z,-0.90
2023-03-15T07:58:05.716Z,-0.90
2023-03-15T08:00:37.396Z,-0.90
2023-03-15T08:03:08.122Z,-0.90
2023-03-15T08:05:38.889Z,-1.00
2023-03-15T08:08:09.615Z,-1.00
2023-03-15T08:10:39.977Z,-1.00
2023-03-15T08:13:10.096Z,-1.00
2023-03-15T08:15:42.038Z,-1.10
2023-03-15T08:18:12.182Z,-1.10
2023-03-15T08:20:42.327Z,-1.10
2023-03-15T08:23:17.305Z,-1.20
2023-03-15T08:25:47.985Z,-1.20
2023-03-15T08:28:18.345Z,-1.20
2023-03-15T08:30:50.095Z,-1.30
2023-03-15T08:33:20.243Z,-1.30
2023-03-15T08:35:55.390Z,-1.30
2023-03-15T08:38:26.861Z,-1.30
2023-03-15T08:40:59.536Z,-1.30
2023-03-15T08:43:29.697Z,-1.40
2023-03-15T08:46:02.022Z,-1.40
2023-03-15T08:48:33.914Z,-1.40
2023-03-15T08:51:06.135Z,-1.40
2023-03-15T08:53:36.275Z,-1.50
2023-03-15T08:56:06.620Z,-1.50
2023-03-15T08:58:36.734Z,-1.50
2023-03-15T09:01:08.708Z,-1.50
2023-03-15T09:03:39.216Z,-1.60
2023-03-15T09:06:10.131Z,-1.60
2023-03-15T09:08:40.216Z,-1.60
2023-03-15T09:11:10.349Z,-1.60
2023-03-15T09:13:40.658Z,-1.60
2023-03-15T09:16:12.432Z,-1.70
2023-03-15T09:18:44.817Z,-1.70
2023-03-15T09:21:15.159Z,-1.70
2023-03-15T09:23:45.322Z,-1.70
2023-03-15T09:26:15.447Z,-1.80
2023-03-15T09:28:45.504Z,-1.80
2023-03-15T09:31:17.303Z,-1.80
2023-03-15T09:33:47.877Z,-1.80
2023-03-15T09:36:18.121Z,-1.90
2023-03-15T09:38:48.654Z,-1.90
2023-03-15T09:41:33.337Z,-1.90
2023-03-15T09:44:22.066Z,-2.00
2023-03-15T09:47:04.220Z,-2.00
2023-03-15T09:49:43.262Z,-2.00
2023-03-15T09:52:28.565Z,-2.00
2023-03-15T09:55:02.448Z,-2.10
2023-03-15T09:57:41.733Z,-2.10
2023-03-15T10:00:17.904Z,-2.10
2023-03-15T10:02:57.602Z,-2.20
2023-03-15T10:05:34.473Z,-2.20
2023-03-15T10:08:04.767Z,-2.20
2023-03-15T10:10:42.610Z,-2.20
2023-03-15T10:13:28.305Z,-2.30
2023-03-15T10:16:10.558Z,-2.30
2023-03-15T10:18:55.731Z,-2.30
2023-03-15T10:21:36.109Z,-2.40
2023-03-15T10:24:07.746Z,-2.40
2023-03-15T10:26:42.822Z,-2.40
2023-03-15T10:29:18.078Z,-2.40
2023-03-15T10:31:49.268Z,-2.40
2023-03-15T10:34:21.064Z,-2.50
2023-03-15T10:36:54.916Z,-2.50
2023-03-15T10:39:27.549Z,-2.50
2023-03-15T10:41:57.609Z,-2.50
2023-03-15T10:44:29.163Z,-2.50
2023-03-15T10:47:22.489Z,-2.50
2023-03-15T10:49:59.727Z,-2.60
2023-03-15T10:52:37.085Z,-2.60
2023-03-15T10:55:14.928Z,-2.60
2023-03-15T10:57:55.710Z,-2.60
2023-03-15T11:00:31.793Z,-2.60
2023-03-15T11:03:06.362Z,-2.70
2023-03-15T11:05:44.607Z,-2.70
2023-03-15T11:08:16.922Z,-2.70
2023-03-15T11:10:49.157Z,-2.70
2023-03-15T11:13:24.576Z,-2.70
2023-03-15T11:16:04.658Z,-2.80
2023-03-15T11:18:39.303Z,-2.80
2023-03-15T11:21:14.965Z,-2.80
2023-03-15T11:23:47.242Z,-2.90
2023-03-15T11:26:32.193Z,-2.90
2023-03-15T11:29:06.779Z,-3.00
2023-03-15T11:31:38.103Z,-3.00
2023-03-15T11:34:11.462Z,-3.00
2023-03-15T11:36:49.074Z,-3.00
2023-03-15T11:39:39.922Z,-3.00
2023-03-15T11:42:16.350Z,-3.10
2023-03-15T11:44:49.583Z,-3.10
2023-03-15T11:47:28.903Z,-3.10
2023-03-15T11:50:00.334Z,-3.10
2023-03-15T11:52:32.739Z,-3.10
2023-03-15T11:55:04.360Z,-3.10
2023-03-15T11:57:44.117Z,-3.10
2023-03-15T12:00:49.839Z,-3.10
2023-03-15T12:03:36.941Z,-3.10
2023-03-15T12:06:38.107Z,-3.20
2023-03-15T12:09:49.639Z,-3.20
2023-03-15T12:12:38.415Z,-3.20
2023-03-15T12:15:38.129Z,-3.20
2023-03-15T12:18:08.808Z,-3.20
2023-03-15T12:20:41.846Z,-3.20
2023-03-15T12:23:24.979Z,-3.20
2023-03-15T12:25:59.083Z,-3.10
2023-03-15T12:28:33.670Z,-3.10
2023-03-15T12:31:06.604Z,-3.10
2023-03-15T12:33:48.066Z,-3.10
2023-03-15T12:36:34.719Z,-3.10
2023-03-15T12:39:21.738Z,-3.10
2023-03-15T12:41:54.263Z,-3.00
2023-03-15T12:44:41.401Z,-3.10
2023-03-15T12:47:13.178Z,-3.10
2023-03-15T12:49:45.829Z,-3.10
2023-03-15T12:52:42.653Z,-3.20
2023-03-15T12:55:18.350Z,-3.30
2023-03-15T12:57:55.613Z,-3.30
2023-03-15T13:00:28.045Z,-3.30
2023-03-15T13:03:06.385Z,-3.30
2023-03-15T13:05:46.998Z,-3.30
2023-03-15T13:08:24.110Z,-3.30
2023-03-15T13:11:14.451Z,-3.20
2023-03-15T13:14:10.774Z,-3.20
2023-03-15T13:16:46.424Z,-3.20
2023-03-15T13:19:23.565Z,-3.10
2023-03-15T13:22:14.704Z,-3.10
2023-03-15T13:24:54.960Z,-3.00
2023-03-15T13:27:38.510Z,-3.00
2023-03-15T13:30:34.220Z,-3.00
2023-03-15T13:33:22.053Z,-3.00
2023-03-15T13:35:58.376Z,-2.90
2023-03-15T13:38:31.540Z,-2.80
2023-03-15T13:41:04.282Z,-2.80
2023-03-15T13:43:36.685Z,-2.70
2023-03-15T13:46:08.889Z,-2.60
2023-03-15T13:48:42.856Z,-2.50
2023-03-15T13:51:21.328Z,-2.50
2023-03-15T13:53:53.709Z,-2.50
2023-03-15T13:56:37.463Z,-2.40
2023-03-15T13:59:14.577Z,-2.40
2023-03-15T14:01:46.732Z,-2.30
2023-03-15T14:04:20.639Z,-2.20
2023-03-15T14:06:51.638Z,-2.10
2023-03-15T14:09:24.052Z,-2.00
2023-03-15T14:12:07.853Z,-1.90
2023-03-15T14:14:41.223Z,-1.80
2023-03-15T14:17:26.812Z,-1.80
2023-03-15T14:19:58.087Z,-1.70
2023-03-15T14:22:29.109Z,-1.70
2023-03-15T14:24:59.220Z,-1.70
2023-03-15T14:27:31.392Z,-1.60
2023-03-15T14:30:03.021Z,-1.50
2023-03-15T14:32:37.301Z,-1.40
2023-03-15T14:35:10.525Z,-1.30
2023-03-15T14:37:43.207Z,-1.20
2023-03-15T14:40:21.584Z,-1.10
2023-03-15T14:42:52.814Z,-1.00
2023-03-15T14:45:24.602Z,-0.90
2023-03-15T14:48:00.626Z,-0.90
2023-03-15T14:50:33.637Z,-0.80
2023-03-15T14:53:04.504Z,-0.70
2023-03-15T14:55:37.502Z,-0.60
2023-03-15T14:58:13.530Z,-0.60
2023-03-15T15:00:44.653Z,-0.60
2023-03-15T15:03:22.937Z,-0.50
2023-03-15T15:05:53.606Z,-0.30
2023-03-15T15:08:24.869Z,-0.30
2023-03-15T15:10:58.117Z,-0.30
2023-03-15T15:13:31.491Z,-0.20
2023-03-15T15:16:01.670Z,-0.10
2023-03-15T15:18:35.666Z,0.00
2023-03-15T15:21:14.526Z,0.10
2023-03-15T15:23:57.968Z,0.20
2023-03-15T15:26:31.225Z,0.30
2023-03-15T15:29:01.967Z,0.50
2023-03-15T15:31:34.952Z,0.60
2023-03-15T15:34:06.961Z,0.80
2023-03-15T15:36:38.631Z,0.90
2023-03-15T15:39:18.657Z,1.00
2023-03-15T15:41:48.815Z,1.30
2023-03-15T15:44:21.721Z,1.30
2023-03-15T15:46:51.860Z,1.20
2023-03-15T15:49:24.614Z,1.30
2023-03-15T15:51:54.840Z,1.30
2023-03-15T15:54:31.672Z,1.50
2023-03-15T15:57:04.682Z,1.70
2023-03-15T15:59:34.967Z,1.80
2023-03-15T16:02:05.798Z,1.90
2023-03-15T16:04:37.794Z,2.20
2023-03-15T16:07:08.553Z,2.30
2023-03-15T16:09:41.050Z,2.30
2023-03-15T16:12:16.333Z,2.50
2023-03-15T16:14:46.768Z,2.40
2023-03-15T16:17:22.174Z,2.40
2023-03-15T16:19:54.531Z,2.50
2023-03-15T16:22:27.721Z,2.80
2023-03-15T16:25:02.125Z,2.80
2023-03-15T16:27:32.911Z,2.70
2023-03-15T16:30:05.230Z,2.90
2023-03-15T16:32:44.124Z,3.10
2023-03-15T16:35:17.231Z,3.50
2023-03-15T16:37:48.920Z,3.90
2023-03-15T16:40:24.612Z,4.00
2023-03-15T16:42:54.879Z,4.50
2023-03-15T16:45:25.507Z,4.70
2023-03-15T16:47:56.981Z,4.80
2023-03-15T16:50:29.295Z,4.80
2023-03-15T16:53:01.682Z,4.80
2023-03-15T16:55:34.646Z,4.80
2023-03-15T16:58:06.852Z,4.80
2023-03-15T17:00:37.850Z,5.10
2023-03-15T17:03:08.403Z,5.40
2023-03-15T17:05:40.173Z,5.50
2023-03-15T17:08:15.158Z,5.50
2023-03-15T17:10:45.528Z,5.70
2023-03-15T17:13:17.815Z,5.90
2023-03-15T17:15:47.993Z,6.30
2023-03-15T17:18:20.092Z,6.10
2023-03-15T17:20:52.532Z,6.20
2023-03-15T17:23:22.632Z,6.50
2023-03-15T17:25:53.334Z,6.30
2023-03-15T17:28:23.446Z,6.70
2023-03-15T17:30:59.772Z,7.00
2023-03-15T17:33:34.379Z,7.10
2023-03-15T17:36:07.900Z,7.00
2023-03-15T17:38:41.495Z,7.00
2023-03-15T17:41:22.265Z,6.90
2023-03-15T17:43:53.785Z,6.70
2023-03-15T17:46:28.859Z,6.70
2023-03-15T17:49:00.180Z,6.60
2023-03-15T17:51:34.330Z,6.90
2023-03-15T17:54:04.784Z,6.70
2023-03-15T17:56:35.087Z,7.00
2023-03-15T17:59:06.117Z,7.10
2023-03-15T18:01:38.367Z,7.20
2023-03-15T18:04:11.896Z,7.10
2023-03-15T18:06:44.773Z,7.00
2023-03-15T18:09:16.097Z,7.10
2023-03-15T18:11:47.382Z,6.90
2023-03-15T18:14:19.543Z,6.90
2023-03-15T18:16:50.065Z,7.20
2023-03-15T18:19:20.589Z,7.60
2023-03-15T18:21:52.439Z,7.80
2023-03-15T18:24:22.535Z,7.70
2023-03-15T18:26:53.397Z,7.60
2023-03-15T18:29:23.601Z,7.30
2023-03-15T18:31:53.992Z,7.20
2023-03-15T18:34:24.137Z,7.30
2023-03-15T18:36:55.854Z,6.90
2023-03-15T18:39:25.931Z,7.10
2023-03-15T18:41:56.031Z,7.10
2023-03-15T18:44:26.119Z,7.40
2023-03-15T18:46:56.194Z,7.10
2023-03-15T18:49:26.632Z,7.00
2023-03-15T18:51:58.769Z,7.00
2023-03-15T18:54:28.856Z,7.20
2023-03-15T18:56:59.120Z,7.50
2023-03-15T18:59:29.230Z,7.50
2023-03-15T19:01:59.744Z,7.60
2023-03-15T19:04:29.865Z,7.60
2023-03-15T19:07:01.785Z,7.60
2023-03-15T19:09:31.940Z,7.80
2023-03-15T19:12:02.065Z,7.60
2023-03-15T19:14:32.404Z,7.20
2023-03-15T19:17:02.567Z,7.10
2023-03-15T19:19:32.657Z,7.00
2023-03-15T19:22:04.387Z,7.10
2023-03-15T19:24:34.465Z,7.30
2023-03-15T19:27:05.096Z,7.40
2023-03-15T19:29:35.388Z,7.20
2023-03-15T19:32:05.527Z,7.00
2023-03-15T19:34:35.823Z,6.80
2023-03-15T19:37:07.733Z,6.70
2023-03-15T19:39:37.805Z,6.70
2023-03-15T19:42:08.801Z,6.80
2023-03-15T19:44:38.888Z,7.00
2023-03-15T19:47:09.253Z,7.10
2023-03-15T19:49:39.769Z,7.00
2023-03-15T19:52:12.202Z,7.10
2023-03-15T19:54:42.325Z,7.10
2023-03-15T19:57:12.783Z,6.60
2023-03-15T19:59:42.854Z,6.40
2023-03-15T20:02:13.876Z,6.30
2023-03-15T20:04:44.034Z,6.40
2023-03-15T20:07:16.138Z,6.50
2023-03-15T20:09:46.278Z,6.60
2023-03-15T20:12:17.390Z,6.70
2023-03-15T20:14:47.838Z,6.50
2023-03-15T20:17:21.154Z,6.40
2023-03-15T20:19:51.238Z,6.60
2023-03-15T20:22:23.265Z,6.60
2023-03-15T20:24:53.579Z,6.60
2023-03-15T20:27:23.859Z,6.50
2023-03-15T20:29:55.115Z,6.50
2023-03-15T20:32:25.758Z,6.50
2023-03-15T20:34:57.991Z,6.60
2023-03-15T20:37:38.362Z,6.70
2023-03-15T20:40:11.466Z,6.60
2023-03-15T20:42:41.821Z,6.40
2023-03-15T20:45:14.043Z,6.40
2023-03-15T20:47:44.849Z,6.30
2023-03-15T20:50:15.488Z,6.20
2023-03-15T20:52:48.041Z,6.30
2023-03-15T20:55:18.203Z,6.50
2023-03-15T20:57:48.449Z,6.60
2023-03-15T21:00:20.676Z,6.40
2023-03-15T21:02:51.141Z,6.60
2023-03-15T21:05:21.519Z,6.60
2023-03-15T21:07:55.650Z,6.50
2023-03-15T21:10:26.075Z,6.40
2023-03-15T21:12:56.429Z,6.70
2023-03-15T21:15:26.774Z,6.70
2023-03-15T21:17:57.185Z,6.70
2023-03-15T21:20:27.598Z,6.80
2023-03-15T21:22:59.764Z,6.80
2023-03-15T21:25:29.912Z,6.80
2023-03-15T21:28:00.047Z,6.90
2023-03-15T21:30:30.340Z,6.90
2023-03-15T21:33:00.765Z,6.70
2023-03-15T21:35:31.076Z,6.80
2023-03-15T21:38:03.078Z,6.80
2023-03-15T21:40:33.187Z,6.80
2023-03-15T21:43:03.320Z,6.70
2023-03-15T21:45:33.526Z,6.40
2023-03-15T21:48:03.889Z,6.20
2023-03-15T21:50:34.336Z,6.00
2023-03-15T21:53:06.550Z,5.90
2023-03-15T21:55:36.638Z,5.90
2023-03-15T21:58:08.224Z,5.70
2023-03-15T22:00:38.844Z,5.70
2023-03-15T22:03:09.843Z,5.60
2023-03-15T22:05:40.245Z,5.50
2023-03-15T22:08:15.367Z,5.30
2023-03-15T22:10:45.836Z,5.10
2023-03-15T22:13:18.444Z,5.00
2023-03-15T22:15:48.808Z,4.90
2023-03-15T22:18:19.554Z,4.70
2023-03-15T22:20:51.900Z,4.60
2023-03-15T22:23:25.819Z,4.50
2023-03-15T22:26:02.949Z,4.40
2023-03-15T22:28:34.435Z,4.30
2023-03-15T22:31:05.073Z,4.10
2023-03-15T22:33:35.804Z,4.00
2023-03-15T22:36:06.094Z,3.90
2023-03-15T22:38:40.434Z,3.90
2023-03-15T22:41:14.579Z,3.90
2023-03-15T22:43:44.903Z,3.80
2023-03-15T22:46:15.682Z,3.70
2023-03-15T22:48:46.678Z,3.50
2023-03-15T22:51:19.057Z,3.30
2023-03-15T22:53:51.384Z,3.10
2023-03-15T22:56:22.161Z,2.80
2023-03-15T22:58:56.218Z,2.60
2023-03-15T23:01:29.939Z,2.40
2023-03-15T23:04:00.238Z,2.10
2023-03-15T23:06:30.451Z,1.90
2023-03-15T23:09:02.497Z,1.80
2023-03-15T23:11:35.355Z,1.70
2023-03-15T23:14:05.846Z,1.70
2023-03-15T23:16:36.735Z,1.60
2023-03-15T23:19:08.319Z,1.70
2023-03-15T23:21:42.667Z,1.60
2023-03-15T23:24:20.491Z,1.50
2023-03-15T23:26:50.692Z,1.40
2023-03-15T23:29:21.152Z,1.30
2023-03-15T23:31:51.767Z,1.20
2023-03-15T23:34:23.490Z,1.20
2023-03-15T23:36:53.940Z,1.10
2023-03-15T23:39:26.333Z,1.00
2023-03-15T23:41:58.622Z,0.80
2023-03-15T23:44:28.725Z,0.80
2023-03-15T23:46:59.248Z,0.60
2023-03-15T23:49:29.926Z,0.40
2023-03-15T23:51:59.978Z,0.20
2023-03-15T23:54:31.818Z,0.10
2023-03-15T23:57:02.091Z,0.00
2023-03-15T23:59:33.099Z,-0.10
